Time;durP1;ratioP1;P1;durP2;ratioP2;P2;SDS_P1;SDS_P2;PMS_P1;PMS_P2;Temp;Humidity;BMP_temperature;BMP_pressure;BME280_temperature;BME280_humidity;BME280_pressure;Samples;Min_cycle;Max_cycle;Signal;HPM_P1;HPM_P2
2022/10/05 00:00:52;;;;;;;12.15;5.93;;;15.90;99.90;;;;;;5069381;28;20484;-81
2022/10/05 00:03:19;;;;;;;11.90;5.47;;;16.00;99.90;;;;;;5069529;28;20044;-81
2022/10/05 00:05:45;;;;;;;8.82;5.70;;;15.90;99.90;;;;;;5053665;28;20389;-80
2022/10/05 00:08:22;;;;;;;9.07;4.72;;;15.90;99.90;;;;;;5069743;28;20048;-81
2022/10/05 00:10:49;;;;;;;7.55;5.10;;;15.90;99.90;;;;;;5068197;28;20037;-81
2022/10/05 00:13:20;;;;;;;10.27;5.72;;;15.90;99.90;;;;;;5053342;28;20040;-81
2022/10/05 00:15:46;;;;;;;8.40;5.38;;;16.00;99.90;;;;;;5069776;28;20048;-81
2022/10/05 00:18:18;;;;;;;8.93;5.03;;;15.90;99.90;;;;;;5069893;28;20119;-81
2022/10/05 00:20:45;;;;;;;8.25;4.90;;;15.90;99.90;;;;;;5052997;28;20085;-80
2022/10/05 00:23:30;;;;;;;10.13;5.05;;;15.90;99.90;;;;;;5069243;28;20040;-81
2022/10/05 00:26:20;;;;;;;8.80;5.10;;;15.90;99.90;;;;;;5067051;28;20067;-81
2022/10/05 00:28:46;;;;;;;11.15;5.57;;;15.90;99.90;;;;;;5068680;28;20051;-81
2022/10/05 00:31:19;;;;;;;8.77;5.20;;;15.90;99.90;;;;;;5069365;28;20033;-80
2022/10/05 00:33:47;;;;;;;7.68;4.72;;;15.90;99.90;;;;;;5053420;28;20037;-80
2022/10/05 00:36:13;;;;;;;10.20;5.15;;;15.90;99.90;;;;;;5053083;28;20040;-80
2022/10/05 00:38:39;;;;;;;9.07;5.00;;;15.90;99.90;;;;;;5069965;28;20055;-80
2022/10/05 00:41:13;;;;;;;;;;;15.90;99.90;;;;;;5073582;28;20041;-81
2022/10/05 00:44:23;;;;;;;8.52;4.72;;;15.90;99.90;;;;;;5073346;28;21134;-81
2022/10/05 00:47:30;;;;;;;6.95;4.50;;;15.80;99.90;;;;;;5062709;28;20053;-81
2022/10/05 00:50:16;;;;;;;9.07;4.43;;;15.80;99.90;;;;;;5041757;28;20508;-80
2022/10/05 00:53:00;;;;;;;7.93;4.55;;;15.80;99.90;;;;;;5073101;28;20158;-80
2022/10/05 00:55:53;;;;;;;6.22;4.00;;;15.80;99.90;;;;;;5056506;28;20047;-81
2022/10/05 00:58:31;;;;;;;8.35;4.10;;;15.70;99.90;;;;;;5056725;28;20037;-80
2022/10/05 01:01:06;;;;;;;7.00;3.97;;;15.80;99.90;;;;;;5072701;28;20043;-80
2022/10/05 01:03:45;;;;;;;6.13;3.58;;;15.80;99.90;;;;;;5056473;28;20039;-81
2022/10/05 01:06:41;;;;;;;8.05;3.70;;;15.80;99.90;;;;;;5056629;28;20557;-80
2022/10/05 01:09:32;;;;;;;6.05;3.28;;;15.80;99.90;;;;;;5070397;28;20035;-80
2022/10/05 01:12:08;;;;;;;6.78;3.38;;;15.90;99.90;;;;;;5072469;28;20076;-81
2022/10/05 01:14:50;;;;;;;4.97;3.40;;;15.90;99.90;;;;;;5072171;28;20039;-81
2022/10/05 01:17:25;;;;;;;5.15;2.95;;;15.90;99.90;;;;;;5072808;28;20075;-81
2022/10/05 01:20:08;;;;;;;6.20;3.53;;;15.90;99.90;;;;;;5072350;28;20052;-81
2022/10/05 01:22:59;;;;;;;5.25;3.22;;;15.90;99.90;;;;;;5063529;28;20514;-80
2022/10/05 01:26:00;;;;;;;6.82;3.42;;;15.90;99.90;;;;;;5072221;28;20044;-80
2022/10/05 01:28:55;;;;;;;6.63;3.25;;;15.80;99.90;;;;;;5071193;28;20033;-80
2022/10/05 01:31:27;;;;;;;6.78;3.38;;;15.80;99.90;;;;;;5048438;28;20040;-81
2022/10/05 01:34:15;;;;;;;7.28;3.22;;;15.90;99.90;;;;;;5072322;28;20055;-81
2022/10/05 01:37:39;;;;;;;6.32;3.50;;;15.80;99.90;;;;;;5070827;28;20040;-81
2022/10/05 01:40:07;;;;;;;7.10;3.35;;;15.80;99.90;;;;;;4985525;28;20106;-81
2022/10/05 01:43:08;;;;;;;5.25;3.50;;;15.80;99.90;;;;;;5059450;28;20063;-81
2022/10/05 01:45:56;;;;;;;5.82;3.13;;;15.80;99.90;;;;;;5069925;28;20373;-81
2022/10/05 01:48:37;;;;;;;5.03;3.22;;;15.80;99.90;;;;;;5068902;28;20037;-81
2022/10/05 01:51:10;;;;;;;7.07;3.92;;;15.80;99.90;;;;;;5054574;28;20121;-81
2022/10/05 01:53:45;;;;;;;5.30;4.00;;;15.80;99.90;;;;;;5071853;28;20123;-81
2022/10/05 01:56:23;;;;;;;10.35;4.00;;;15.80;99.90;;;;;;5071248;28;20036;-81
2022/10/05 01:59:01;;;;;;;7.95;4.05;;;15.80;99.90;;;;;;5072253;28;20111;-80
2022/10/05 02:01:54;;;;;;;9.77;4.78;;;15.80;99.90;;;;;;5071859;28;20667;-80
2022/10/05 02:04:28;;;;;;;9.90;4.28;;;15.80;99.90;;;;;;5053784;28;20037;-80
2022/10/05 02:06:54;;;;;;;8.80;4.68;;;15.70;99.90;;;;;;5054885;28;20043;-80
2022/10/05 02:09:27;;;;;;;6.05;4.10;;;15.70;99.90;;;;;;5055555;28;20037;-80
2022/10/05 02:12:04;;;;;;;12.30;4.47;;;15.70;99.90;;;;;;5069173;28;20055;-80
2022/10/05 02:14:38;;;;;;;8.20;4.53;;;15.70;99.90;;;;;;5071484;28;20119;-80
2022/10/05 02:17:12;;;;;;;7.00;4.03;;;15.70;99.90;;;;;;5054990;28;20492;-81
2022/10/05 02:19:41;;;;;;;6.20;4.25;;;15.70;99.90;;;;;;5055199;28;20044;-80
2022/10/05 02:22:14;;;;;;;7.43;4.50;;;15.70;99.90;;;;;;5053962;28;20119;-80
2022/10/05 02:24:54;;;;;;;8.43;4.07;;;15.60;99.90;;;;;;5071233;28;20040;-80
2022/10/05 02:27:46;;;;;;;6.57;4.30;;;15.60;99.90;;;;;;5069339;28;20061;-80
2022/10/05 02:30:13;;;;;;;10.73;4.53;;;15.60;99.90;;;;;;5070833;28;20059;-80
2022/10/05 02:33:05;;;;;;;7.57;4.25;;;15.50;99.90;;;;;;5071335;28;20392;-79
2022/10/05 02:35:31;;;;;;;8.02;4.60;;;15.50;99.90;;;;;;5064274;28;20091;-80
2022/10/05 02:37:59;;;;;;;7.25;4.25;;;15.50;99.90;;;;;;5071154;28;20500;-80
2022/10/05 02:40:46;;;;;;;9.23;4.28;;;15.50;99.90;;;;;;5071286;28;20041;-80
2022/10/05 02:43:54;;;;;;;5.25;3.42;;;15.50;99.90;;;;;;5053592;28;20066;-79
2022/10/05 02:46:49;;;;;;;8.45;4.47;;;15.50;99.90;;;;;;5068528;28;20044;-80
2022/10/05 02:49:23;;;;;;;6.80;4.47;;;15.50;99.90;;;;;;5068739;28;20071;-80
2022/10/05 02:52:15;;;;;;;6.40;3.55;;;15.50;99.90;;;;;;5071363;28;20076;-80
2022/10/05 02:55:31;;;;;;;5.90;3.33;;;15.60;99.90;;;;;;5071191;28;20404;-80
2022/10/05 02:58:10;;;;;;;7.60;4.20;;;15.60;99.90;;;;;;5012176;28;20056;-80
2022/10/05 03:00:46;;;;;;;6.47;3.92;;;15.60;99.90;;;;;;5013674;28;20029;-80
2022/10/05 03:03:40;;;;;;;6.75;4.13;;;15.50;99.90;;;;;;5051190;28;20163;-80
2022/10/05 03:06:20;;;;;;;7.15;3.80;;;15.50;99.90;;;;;;5070656;28;20369;-80
2022/10/05 03:08:52;;;;;;;4.88;3.28;;;15.60;99.90;;;;;;5070510;28;20043;-80
2022/10/05 03:11:29;;;;;;;5.93;3.65;;;15.60;99.90;;;;;;5069092;28;20427;-80
2022/10/05 03:13:58;;;;;;;7.40;3.78;;;15.50;99.90;;;;;;5070799;28;20071;-80
2022/10/05 03:16:47;;;;;;;7.32;3.55;;;15.60;99.90;;;;;;5070475;28;20091;-80
2022/10/05 03:19:25;;;;;;;5.90;3.60;;;15.60;99.90;;;;;;5067098;28;20044;-80
2022/10/05 03:21:58;;;;;;;6.30;3.03;;;15.70;99.90;;;;;;5069580;28;20047;-80
2022/10/05 03:24:42;;;;;;;5.72;3.38;;;15.70;99.90;;;;;;5069821;28;20501;-79
2022/10/05 03:27:47;;;;;;;9.93;3.55;;;15.70;99.90;;;;;;5052750;28;20051;-80
2022/10/05 03:30:17;;;;;;;6.82;3.03;;;15.70;99.90;;;;;;5053081;28;20044;-81
2022/10/05 03:33:20;;;;;;;4.72;3.10;;;15.60;99.90;;;;;;5069872;28;20037;-80
2022/10/05 03:35:53;;;;;;;5.65;2.75;;;15.60;99.90;;;;;;5070063;28;20044;-80
2022/10/05 03:38:24;;;;;;;5.93;3.35;;;15.60;99.90;;;;;;5070517;28;20039;-80
2022/10/05 03:41:05;;;;;;;8.70;3.70;;;15.60;99.90;;;;;;5068495;28;20044;-80
2022/10/05 03:43:38;;;;;;;6.85;3.10;;;15.60;99.90;;;;;;5069896;28;20044;-80
2022/10/05 03:46:25;;;;;;;5.38;3.58;;;15.50;99.90;;;;;;5052543;28;20072;-80
2022/10/05 03:49:03;;;;;;;6.78;3.15;;;15.50;99.90;;;;;;5068884;28;20047;-80
2022/10/05 03:51:37;;;;;;;6.35;3.47;;;15.50;99.90;;;;;;5070318;28;20048;-81
2022/10/05 03:54:32;;;;;;;7.25;3.47;;;15.50;99.90;;;;;;5052894;28;20068;-80
2022/10/05 03:57:06;;;;;;;3.97;2.60;;;15.50;99.90;;;;;;5067856;28;20060;-80
2022/10/05 03:59:53;;;;;;;6.13;3.47;;;15.50;99.90;;;;;;5053303;28;20040;-80
2022/10/05 04:02:25;;;;;;;;;;;15.50;99.90;;;;;;5069843;28;20556;-80
2022/10/05 04:05:02;;;;;;;11.48;3.50;;;15.60;99.90;;;;;;5069789;28;19920;-80
2022/10/05 04:07:45;;;;;;;6.28;3.30;;;15.50;99.90;;;;;;5068214;28;20507;-80
2022/10/05 04:10:32;;;;;;;6.72;3.63;;;15.50;99.90;;;;;;5067901;28;20076;-80
2022/10/05 04:13:17;;;;;;;7.03;3.35;;;15.70;99.90;;;;;;5069585;28;20043;-80
2022/10/05 04:15:57;;;;;;;7.03;3.92;;;15.60;99.90;;;;;;5071475;28;20035;-81
2022/10/05 04:18:26;;;;;;;5.40;3.58;;;15.60;99.90;;;;;;5071141;28;20037;-80
2022/10/05 04:20:57;;;;;;;8.85;3.55;;;15.60;99.90;;;;;;5074282;28;20127;-81
2022/10/05 04:23:38;;;;;;;6.82;3.78;;;15.60;99.90;;;;;;5056924;28;20127;-81
2022/10/05 04:26:11;;;;;;;5.60;3.45;;;15.60;99.90;;;;;;5074006;28;20052;-80
2022/10/05 04:28:55;;;;;;;6.65;3.60;;;15.50;99.90;;;;;;5057435;28;20040;-81
2022/10/05 04:31:55;;;;;;;8.82;3.70;;;15.60;99.90;;;;;;5073254;28;20033;-80
2022/10/05 04:34:45;;;;;;;8.05;3.60;;;15.60;99.90;;;;;;5069041;28;20131;-82
2022/10/05 04:37:22;;;;;;;6.20;3.58;;;15.60;99.90;;;;;;5055214;28;20106;-81
2022/10/05 04:40:02;;;;;;;8.30;3.80;;;15.60;99.90;;;;;;5074118;28;20076;-81
2022/10/05 04:42:45;;;;;;;4.45;3.20;;;15.60;99.90;;;;;;5071143;28;20036;-80
2022/10/05 04:45:34;;;;;;;5.53;3.35;;;15.60;99.90;;;;;;5069386;28;20033;-80
2022/10/05 04:48:19;;;;;;;7.88;3.85;;;15.60;99.90;;;;;;5073425;28;20170;-80
2022/10/05 04:50:47;;;;;;;6.47;3.80;;;15.70;99.90;;;;;;5072093;28;20036;-80
2022/10/05 04:53:38;;;;;;;6.68;4.10;;;15.60;99.90;;;;;;5073549;28;20508;-80
2022/10/05 04:56:23;;;;;;;7.57;4.05;;;15.60;99.90;;;;;;5071653;28;20033;-81
2022/10/05 04:59:08;;;;;;;7.18;4.57;;;15.50;99.90;;;;;;5074473;28;20067;-81
2022/10/05 05:01:52;;;;;;;7.35;4.35;;;15.60;99.90;;;;;;5033269;28;20505;-81
2022/10/05 05:04:21;;;;;;;10.95;4.05;;;15.50;99.90;;;;;;5066881;28;20051;-81
2022/10/05 05:07:08;;;;;;;9.05;4.97;;;15.40;99.90;;;;;;5070373;28;20078;-81
2022/10/05 05:09:52;;;;;;;8.85;4.88;;;15.50;99.90;;;;;;5070785;28;20032;-81
2022/10/05 05:12:34;;;;;;;8.20;5.03;;;15.40;99.90;;;;;;5070951;28;20067;-81
2022/10/05 05:15:21;;;;;;;8.70;5.68;;;15.50;99.90;;;;;;5069784;28;20115;-81
2022/10/05 05:18:16;;;;;;;7.90;4.78;;;15.40;99.90;;;;;;5053365;28;20124;-81
2022/10/05 05:21:15;;;;;;;9.20;4.93;;;15.40;99.90;;;;;;5070712;28;20070;-81
2022/10/05 05:24:08;;;;;;;8.00;4.63;;;15.50;99.90;;;;;;5054007;28;20530;-81
2022/10/05 05:26:54;;;;;;;10.88;5.13;;;15.40;99.90;;;;;;5071395;28;20439;-81
2022/10/05 05:29:29;;;;;;;8.40;5.37;;;15.40;99.90;;;;;;5067993;28;20044;-81
2022/10/05 05:32:31;;;;;;;9.95;5.55;;;15.50;99.90;;;;;;5069718;28;20451;-80
2022/10/05 05:35:06;;;;;;;7.95;5.30;;;15.50;99.90;;;;;;5071802;28;20450;-81
2022/10/05 05:37:35;;;;;;;9.45;4.55;;;15.50;99.90;;;;;;5053716;28;20755;-80
2022/10/05 05:40:16;;;;;;;9.05;5.05;;;15.40;99.90;;;;;;5071897;28;20407;-80
2022/10/05 05:43:07;;;;;;;9.23;4.97;;;15.30;99.90;;;;;;5071149;28;20068;-81
2022/10/05 05:45:43;;;;;;;10.38;4.97;;;15.30;99.90;;;;;;5054601;28;20559;-81
2022/10/05 05:48:17;;;;;;;7.00;4.17;;;15.30;99.90;;;;;;5070808;28;20086;-81
2022/10/05 05:50:55;;;;;;;8.32;4.93;;;15.50;99.90;;;;;;5055221;28;20033;-81
2022/10/05 05:53:30;;;;;;;7.03;4.70;;;15.40;99.90;;;;;;5053893;28;20040;-81
2022/10/05 05:56:13;;;;;;;7.93;4.65;;;15.40;99.90;;;;;;5068279;28;20507;-82
2022/10/05 05:58:52;;;;;;;10.48;3.95;;;15.40;99.90;;;;;;5071222;28;20089;-81
2022/10/05 06:01:47;;;;;;;7.63;4.28;;;15.40;99.90;;;;;;5069021;28;20040;-81
2022/10/05 06:04:24;;;;;;;7.95;4.22;;;15.40;99.90;;;;;;5069676;28;20129;-81
2022/10/05 06:06:52;;;;;;;8.88;4.63;;;15.30;99.90;;;;;;5052644;28;20513;-81
2022/10/05 06:09:21;;;;;;;9.45;4.47;;;15.30;99.90;;;;;;5070113;28;20097;-81
2022/10/05 06:12:05;;;;;;;8.68;4.47;;;15.40;99.90;;;;;;5048963;28;20035;-77
2022/10/05 06:14:38;;;;;;;7.30;4.13;;;15.40;99.90;;;;;;5064681;28;20115;-76
2022/10/05 06:17:16;;;;;;;7.78;4.05;;;15.40;99.90;;;;;;5066763;28;20069;-76
2022/10/05 06:19:44;;;;;;;10.38;4.82;;;15.40;99.90;;;;;;5063958;28;20495;-77
2022/10/05 06:22:23;;;;;;;10.13;4.50;;;15.40;99.90;;;;;;5067094;28;20408;-77
2022/10/05 06:24:59;;;;;;;7.30;3.90;;;15.40;99.90;;;;;;5047267;28;20052;-77
2022/10/05 06:27:26;;;;;;;7.72;4.53;;;15.40;99.90;;;;;;5049813;28;20085;-76
2022/10/05 06:30:15;;;;;;;8.48;4.50;;;15.50;99.90;;;;;;5050019;28;20033;-76
2022/10/05 06:32:49;;;;;;;6.00;3.90;;;15.50;99.90;;;;;;5065743;28;20102;-77
2022/10/05 06:35:52;;;;;;;8.65;4.32;;;15.40;99.90;;;;;;5068249;28;20537;-76
2022/10/05 06:39:12;;;;;;;6.10;4.20;;;15.40;99.90;;;;;;5049753;28;20115;-77
2022/10/05 06:41:44;;;;;;;12.25;4.45;;;15.50;99.90;;;;;;5065941;28;20072;-77
2022/10/05 06:44:37;;;;;;;5.63;3.78;;;15.50;99.90;;;;;;5068371;28;20531;-77
2022/10/05 06:47:41;;;;;;;8.90;4.35;;;15.60;99.90;;;;;;5040325;28;20036;-76
2022/10/05 06:50:24;;;;;;;7.60;4.18;;;15.60;99.90;;;;;;5047303;28;20162;-76
2022/10/05 06:53:17;;;;;;;5.97;3.75;;;15.50;99.90;;;;;;5065801;28;20048;-76
2022/10/05 06:56:03;;;;;;;6.63;4.35;;;15.50;99.90;;;;;;5049817;28;20071;-76
2022/10/05 06:58:48;;;;;;;6.38;3.38;;;15.60;99.90;;;;;;5066417;28;20040;-77
2022/10/05 07:01:34;;;;;;;8.20;4.60;;;15.60;99.90;;;;;;5064085;28;20040;-77
2022/10/05 07:04:24;;;;;;;5.95;3.53;;;15.60;99.90;;;;;;5060578;28;20052;-77
2022/10/05 07:06:54;;;;;;;6.65;3.60;;;15.50;99.90;;;;;;5066221;28;20048;-76
2022/10/05 07:09:22;;;;;;;6.00;3.72;;;15.60;99.90;;;;;;5067025;28;20448;-77
2022/10/05 07:11:57;;;;;;;6.82;3.42;;;15.70;99.90;;;;;;5065813;28;20042;-77
2022/10/05 07:14:28;;;;;;;6.20;4.57;;;15.70;99.90;;;;;;5064971;28;20060;-77
2022/10/05 07:17:12;;;;;;;5.43;3.72;;;15.60;99.90;;;;;;5066997;28;20044;-77
2022/10/05 07:20:16;;;;;;;9.88;4.10;;;15.60;99.90;;;;;;5065085;28;20050;-78
2022/10/05 07:23:10;;;;;;;4.60;3.33;;;15.60;99.90;;;;;;5065149;28;20320;-78
2022/10/05 07:25:49;;;;;;;8.30;3.63;;;15.60;99.90;;;;;;5050286;28;20457;-78
2022/10/05 07:28:51;;;;;;;5.80;3.67;;;15.60;99.90;;;;;;5067403;28;20052;-77
2022/10/05 07:31:47;;;;;;;6.22;3.45;;;15.60;99.90;;;;;;5068466;28;20170;-77
2022/10/05 07:34:42;;;;;;;5.20;2.97;;;15.60;99.90;;;;;;5066251;28;20480;-77
2022/10/05 07:40:25;;;;;;;4.40;3.15;;;15.70;99.90;;;;;;5064495;28;20083;-78
2022/10/05 07:42:58;;;;;;;4.68;2.72;;;15.80;99.90;;;;;;5064031;28;20389;-78
2022/10/05 07:45:24;;;;;;;4.90;3.10;;;15.80;99.90;;;;;;5064307;28;20093;-78
2022/10/05 07:47:54;;;;;;;3.97;3.05;;;15.80;99.90;;;;;;5048853;28;20488;-78
2022/10/05 07:50:42;;;;;;;4.60;3.00;;;15.90;99.90;;;;;;5067880;28;20036;-78
2022/10/05 07:53:30;;;;;;;6.32;2.95;;;15.90;99.90;;;;;;5063555;28;20067;-77
2022/10/05 07:56:03;;;;;;;4.00;3.05;;;15.90;99.90;;;;;;5065987;28;20059;-78
2022/10/05 07:58:48;;;;;;;4.88;3.05;;;15.90;99.90;;;;;;5067247;28;20049;-77
2022/10/05 08:01:25;;;;;;;3.70;2.90;;;15.90;99.90;;;;;;5064063;28;20067;-77
2022/10/05 08:04:21;;;;;;;3.60;2.15;;;15.90;99.90;;;;;;5065379;28;20063;-77
2022/10/05 08:06:56;;;;;;;3.42;2.10;;;15.90;99.90;;;;;;5048637;28;20508;-77
2022/10/05 08:09:40;;;;;;;3.95;2.22;;;16.00;99.90;;;;;;5049111;28;20093;-77
2022/10/05 08:12:21;;;;;;;3.10;1.92;;;16.00;99.90;;;;;;5066120;28;20039;-77
2022/10/05 08:15:10;;;;;;;3.13;1.85;;;16.00;99.90;;;;;;5048397;28;20044;-77
2022/10/05 08:17:54;;;;;;;4.35;1.83;;;16.10;99.90;;;;;;5067697;28;20507;-77
2022/10/05 08:20:32;;;;;;;5.00;1.60;;;16.10;99.90;;;;;;5068253;28;20094;-77
2022/10/05 08:23:19;;;;;;;4.97;1.95;;;16.10;99.90;;;;;;5066546;28;20047;-77
2022/10/05 08:25:58;;;;;;;;;;;16.10;99.90;;;;;;5048799;28;20460;-78
2022/10/05 08:28:40;;;;;;;2.78;1.38;;;16.10;99.90;;;;;;5051017;28;19916;-77
2022/10/05 08:31:23;;;;;;;5.05;1.67;;;16.20;99.90;;;;;;5050908;28;20036;-78
2022/10/05 08:34:10;;;;;;;3.88;1.40;;;16.20;99.90;;;;;;5062551;28;20110;-79
2022/10/05 08:36:39;;;;;;;3.65;1.40;;;16.30;99.90;;;;;;5065145;28;20037;-79
2022/10/05 08:39:18;;;;;;;2.10;1.30;;;16.40;99.90;;;;;;5067562;28;20040;-79
2022/10/05 08:41:53;;;;;;;3.47;1.40;;;16.50;99.90;;;;;;5066290;28;20036;-79
2022/10/05 08:44:45;;;;;;;7.03;1.75;;;16.60;99.90;;;;;;5048915;28;20051;-79
2022/10/05 08:47:16;;;;;;;4.30;1.70;;;16.60;99.90;;;;;;5066748;28;20115;-80
2022/10/05 08:50:05;;;;;;;3.47;1.52;;;16.70;99.90;;;;;;5066679;28;20414;-79
2022/10/05 08:52:49;;;;;;;2.80;1.75;;;16.80;99.90;;;;;;5066581;28;20063;-79
2022/10/05 08:55:28;;;;;;;3.67;1.80;;;16.80;99.90;;;;;;5062659;28;20367;-80
2022/10/05 08:58:19;;;;;;;5.10;1.92;;;16.90;99.90;;;;;;5066638;28;20041;-79
2022/10/05 09:01:08;;;;;;;2.42;1.77;;;17.00;99.90;;;;;;5066744;28;20094;-79
2022/10/05 09:03:46;;;;;;;3.17;1.55;;;17.10;99.90;;;;;;5050175;28;20033;-79
2022/10/05 09:06:25;;;;;;;3.45;1.80;;;17.20;99.90;;;;;;5052917;28;20051;-79
2022/10/05 09:09:20;;;;;;;2.90;1.63;;;17.20;99.90;;;;;;5071372;28;20426;-79
2022/10/05 09:12:15;;;;;;;3.33;1.58;;;17.30;99.90;;;;;;5068711;28;20032;-77
2022/10/05 09:15:00;;;;;;;5.22;2.00;;;17.40;99.90;;;;;;5068992;28;20218;-77
2022/10/05 09:17:28;;;;;;;3.58;2.10;;;17.50;99.90;;;;;;5069864;28;20548;-78
2022/10/05 09:20:15;;;;;;;6.45;2.05;;;17.50;99.90;;;;;;5052778;28;20052;-80
2022/10/05 09:23:18;;;;;;;2.55;2.20;;;17.50;99.90;;;;;;5052579;28;20440;-79
2022/10/05 09:26:05;;;;;;;4.18;2.33;;;17.60;99.90;;;;;;5058760;28;20120;-79
2022/10/05 09:28:54;;;;;;;4.70;2.53;;;17.60;99.90;;;;;;5052052;28;20123;-78
2022/10/05 09:31:36;;;;;;;3.13;2.45;;;17.50;99.90;;;;;;5053164;28;20384;-78
2022/10/05 09:34:26;;;;;;;6.70;2.40;;;17.60;99.90;;;;;;5053495;28;20123;-78
2022/10/05 09:37:19;;;;;;;6.53;2.17;;;17.70;99.90;;;;;;5051777;28;20076;-77
2022/10/05 09:39:58;;;;;;;3.88;2.30;;;17.70;99.90;;;;;;5068985;28;20079;-79
2022/10/05 09:43:08;;;;;;;3.72;2.05;;;17.80;99.90;;;;;;5070338;28;20048;-76
2022/10/05 09:46:08;;;;;;;3.75;2.10;;;18.00;99.90;;;;;;5054622;28;20049;-79
2022/10/05 09:48:52;;;;;;;3.90;2.13;;;17.90;99.90;;;;;;5070865;28;20106;-79
2022/10/05 09:51:50;;;;;;;3.92;2.00;;;18.10;99.90;;;;;;5070898;28;20044;-79
2022/10/05 09:54:45;;;;;;;4.00;2.33;;;18.10;99.90;;;;;;5071041;28;20033;-79
2022/10/05 09:57:35;;;;;;;7.53;2.20;;;18.10;99.90;;;;;;5053410;28;20044;-79
2022/10/05 10:00:26;;;;;;;4.03;2.10;;;18.10;99.90;;;;;;5050914;28;20048;-79
2022/10/05 10:03:13;;;;;;;6.63;2.22;;;18.20;99.90;;;;;;5050760;28;20044;-79
2022/10/05 10:06:16;;;;;;;3.80;2.38;;;18.20;99.90;;;;;;5069950;28;20480;-79
2022/10/05 10:08:59;;;;;;;3.65;2.22;;;18.30;99.90;;;;;;5066800;28;20036;-78
2022/10/05 10:11:53;;;;;;;4.15;2.00;;;18.50;99.90;;;;;;5052623;28;20136;-78
2022/10/05 10:14:49;;;;;;;3.85;2.20;;;18.60;99.90;;;;;;5070547;28;20120;-78
2022/10/05 10:17:17;;;;;;;3.35;2.10;;;18.60;99.90;;;;;;5053557;28;20043;-78
2022/10/05 10:20:44;;;;;;;6.28;2.47;;;18.30;99.90;;;;;;5053055;28;20517;-79
2022/10/05 10:23:21;;;;;;;4.75;2.30;;;18.10;99.90;;;;;;4989642;28;20057;-79
2022/10/05 10:26:17;;;;;;;4.47;2.08;;;17.90;99.90;;;;;;4975718;28;20145;-79
2022/10/05 10:29:07;;;;;;;4.35;1.98;;;17.80;99.90;;;;;;5028936;28;20048;-79
2022/10/05 10:31:51;;;;;;;4.63;2.20;;;17.60;99.90;;;;;;5069765;28;20033;-79
2022/10/05 10:34:27;;;;;;;4.03;2.20;;;17.60;99.90;;;;;;5069860;28;20042;-76
2022/10/05 10:37:31;;;;;;;3.00;2.33;;;17.50;99.90;;;;;;5067320;28;20044;-76
2022/10/05 10:40:22;;;;;;;6.05;2.45;;;17.50;99.90;;;;;;5052265;28;20080;-75
2022/10/05 10:43:23;;;;;;;4.50;2.45;;;17.50;99.90;;;;;;5068540;28;20127;-76
2022/10/05 10:45:49;;;;;;;3.88;2.22;;;17.40;99.90;;;;;;5062455;28;20194;-75
2022/10/05 10:48:17;;;;;;;3.88;2.08;;;17.40;99.90;;;;;;5052507;28;20108;-75
2022/10/05 10:51:11;;;;;;;2.92;2.10;;;17.40;99.90;;;;;;5067045;28;20507;-75
2022/10/05 10:54:02;;;;;;;2.85;2.00;;;17.40;99.90;;;;;;5067452;28;20550;-75
2022/10/05 10:56:49;;;;;;;3.28;2.10;;;17.60;99.90;;;;;;5068277;28;20052;-75
2022/10/05 10:59:35;;;;;;;4.30;2.40;;;17.40;99.90;;;;;;5069751;28;20500;-75
2022/10/05 11:02:19;;;;;;;6.32;2.70;;;17.30;99.90;;;;;;5065619;28;20071;-76
2022/10/05 11:05:21;;;;;;;5.03;2.10;;;17.30;99.90;;;;;;5052450;28;20040;-75
2022/10/05 11:08:14;;;;;;;3.72;2.55;;;17.50;99.90;;;;;;5067659;28;20047;-76
2022/10/05 11:11:06;;;;;;;4.07;2.30;;;17.40;99.90;;;;;;5027069;28;20049;-76
2022/10/05 11:13:38;;;;;;;3.25;2.67;;;17.40;99.90;;;;;;5068530;28;20068;-75
2022/10/05 11:16:28;;;;;;;3.13;2.53;;;17.40;99.90;;;;;;5068241;28;20044;-75
2022/10/05 11:19:24;;;;;;;4.88;3.08;;;17.30;99.90;;;;;;5051810;28;20047;-75
2022/10/05 11:22:09;;;;;;;4.72;2.50;;;17.30;99.90;;;;;;5066030;28;20044;-75
2022/10/05 11:24:56;;;;;;;4.82;2.80;;;17.40;99.90;;;;;;5069025;28;20036;-75
2022/10/05 11:28:00;;;;;;;5.68;2.67;;;17.30;99.90;;;;;;5069174;28;20552;-76
2022/10/05 11:30:43;;;;;;;4.25;2.55;;;17.30;99.90;;;;;;5048747;28;20044;-76
2022/10/05 11:33:47;;;;;;;4.82;2.70;;;17.30;99.90;;;;;;5067457;28;20555;-76
2022/10/05 11:36:32;;;;;;;3.40;2.45;;;17.30;99.90;;;;;;5051823;28;20059;-76
2022/10/05 11:39:32;;;;;;;5.63;2.60;;;17.30;99.90;;;;;;5068421;28;20493;-76
2022/10/05 11:42:24;;;;;;;4.78;2.17;;;17.20;99.90;;;;;;5065546;28;20040;-76
2022/10/05 11:45:28;;;;;;;6.53;2.97;;;17.20;99.90;;;;;;5066281;28;20048;-76
2022/10/05 11:48:42;;;;;;;4.47;2.35;;;17.20;99.90;;;;;;5067366;28;20044;-75
2022/10/05 11:51:21;;;;;;;4.25;2.85;;;17.10;99.90;;;;;;4995619;28;20089;-75
2022/10/05 11:54:02;;;;;;;5.78;2.55;;;17.00;99.90;;;;;;5067392;28;20047;-75
2022/10/05 11:56:53;;;;;;;4.13;2.72;;;17.00;99.90;;;;;;5052863;28;20040;-76
2022/10/05 11:59:42;;;;;;;3.10;2.80;;;17.10;99.90;;;;;;5069300;28;20064;-75
2022/10/05 12:02:13;;;;;;;3.80;2.53;;;17.10;99.90;;;;;;5051131;28;20170;-76
2022/10/05 12:04:51;;;;;;;2.85;2.38;;;17.00;99.90;;;;;;5069624;28;20040;-77
2022/10/05 12:07:25;;;;;;;4.25;2.60;;;17.10;99.90;;;;;;5070681;28;20369;-77
2022/10/05 12:10:16;;;;;;;3.88;2.40;;;17.10;99.90;;;;;;5069254;28;20161;-78
2022/10/05 12:13:18;;;;;;;2.65;2.40;;;17.20;99.90;;;;;;5051888;28;20035;-76
2022/10/05 12:16:02;;;;;;;3.28;2.28;;;17.20;99.90;;;;;;5052703;28;20047;-77
2022/10/05 12:18:31;;;;;;;4.82;2.38;;;17.30;99.90;;;;;;5068237;28;20506;-76
2022/10/05 12:21:18;;;;;;;3.22;2.42;;;17.40;99.90;;;;;;5069764;28;20040;-76
2022/10/05 12:23:52;;;;;;;4.25;2.45;;;17.30;99.90;;;;;;5066966;28;20044;-76
2022/10/05 12:26:30;;;;;;;5.30;2.50;;;17.20;99.90;;;;;;5069632;28;20044;-77
2022/10/05 12:29:12;;;;;;;4.53;2.70;;;17.40;99.90;;;;;;5068347;28;20381;-77
2022/10/05 12:31:43;;;;;;;3.58;2.65;;;17.40;99.90;;;;;;5052975;28;20472;-77
2022/10/05 12:34:23;;;;;;;4.55;3.00;;;17.50;99.90;;;;;;5069758;28;20071;-76
2022/10/05 12:37:13;;;;;;;3.20;2.58;;;17.50;99.90;;;;;;5072798;28;20051;-76
2022/10/05 12:39:45;;;;;;;3.50;2.50;;;17.40;99.90;;;;;;5071241;28;20138;-78
2022/10/05 12:42:49;;;;;;;4.15;2.75;;;17.30;99.90;;;;;;5073039;28;20628;-77
2022/10/05 12:45:45;;;;;;;5.97;2.72;;;17.40;99.90;;;;;;5021850;28;20052;-76
2022/10/05 12:48:48;;;;;;;5.22;2.60;;;17.40;99.90;;;;;;5071942;28;20041;-76
2022/10/05 12:51:40;;;;;;;3.58;2.45;;;17.50;99.90;;;;;;5068391;28;20115;-76
2022/10/05 12:54:09;;;;;;;3.47;2.42;;;17.50;99.90;;;;;;5049280;28;20049;-77
2022/10/05 12:56:52;;;;;;;4.22;2.55;;;17.40;99.90;;;;;;5070057;28;20075;-76
2022/10/05 12:59:43;;;;;;;4.75;2.60;;;17.40;99.90;;;;;;5072220;28;20028;-76
2022/10/05 13:02:42;;;;;;;3.30;2.40;;;17.40;99.90;;;;;;5067259;28;20044;-77
2022/10/05 13:05:08;;;;;;;3.92;2.85;;;17.40;99.90;;;;;;5072518;28;20403;-78
2022/10/05 13:07:58;;;;;;;3.03;2.43;;;17.40;99.90;;;;;;5073454;28;20033;-76
2022/10/05 13:10:35;;;;;;;3.60;2.40;;;17.30;99.90;;;;;;5072449;28;20287;-76
2022/10/05 13:13:00;;;;;;;;;;;17.30;99.90;;;;;;5072125;28;20116;-77
2022/10/05 13:15:58;;;;;;;3.85;2.78;;;17.40;99.90;;;;;;5071829;28;19920;-76
2022/10/05 13:18:31;;;;;;;;;;;17.40;99.90;;;;;;5069867;28;20079;-75
2022/10/05 13:21:11;;;;;;;5.03;2.90;;;17.50;99.90;;;;;;5071305;28;19916;-76
2022/10/05 13:23:39;;;;;;;4.00;2.88;;;17.50;99.90;;;;;;5054416;28;20028;-77
2022/10/05 13:26:16;;;;;;;4.25;3.03;;;17.50;99.90;;;;;;5051922;28;20083;-75
2022/10/05 13:28:53;;;;;;;6.13;3.10;;;17.50;99.90;;;;;;5072182;28;20419;-75
2022/10/05 13:31:22;;;;;;;;;;;17.60;99.90;;;;;;5070076;28;20050;-76
2022/10/05 13:34:18;;;;;;;5.97;3.10;;;17.60;99.90;;;;;;5069603;28;19927;-76
2022/10/05 13:36:56;;;;;;;5.05;2.92;;;17.60;99.90;;;;;;5070574;28;20051;-74
2022/10/05 13:39:37;;;;;;;4.78;2.40;;;17.60;99.90;;;;;;5070065;28;20105;-76
2022/10/05 13:42:39;;;;;;;4.35;2.60;;;17.60;99.90;;;;;;5052044;28;20044;-75
2022/10/05 13:45:17;;;;;;;5.47;2.83;;;17.60;99.90;;;;;;5021247;28;20048;-76
2022/10/05 13:48:14;;;;;;;5.13;2.72;;;17.50;99.90;;;;;;5068578;28;20037;-74
2022/10/05 13:51:04;;;;;;;4.05;2.33;;;17.60;99.90;;;;;;5068972;28;20500;-76
2022/10/05 13:54:01;;;;;;;5.57;2.60;;;17.70;99.90;;;;;;5068749;28;20036;-75
2022/10/05 13:56:41;;;;;;;5.35;2.28;;;17.80;99.90;;;;;;5070341;28;20036;-76
2022/10/05 13:59:16;;;;;;;4.07;2.55;;;17.90;99.90;;;;;;5052911;28;20032;-76
2022/10/05 14:02:01;;;;;;;4.35;2.60;;;18.00;99.90;;;;;;5051144;28;20029;-76
2022/10/05 14:04:40;;;;;;;5.00;2.45;;;18.10;99.90;;;;;;5070380;28;20115;-78
2022/10/05 14:07:30;;;;;;;4.60;2.60;;;18.20;99.90;;;;;;5053394;28;20358;-78
2022/10/05 14:09:57;;;;;;;6.05;2.58;;;18.30;99.90;;;;;;5052719;28;20382;-77
2022/10/05 14:12:26;;;;;;;3.58;2.60;;;18.20;99.90;;;;;;5069387;28;20492;-79
2022/10/05 14:14:57;;;;;;;5.22;2.53;;;18.20;99.90;;;;;;5071345;28;20048;-80